Time,TemperatureF,DewpointF,PressureIn,WindDirection,WindDirectionDegrees,WindSpeedMPH,WindSpeedGustMPH,Humidity,HourlyPrecipIn,Conditions,Clouds,dailyrainin,SoftwareType,DateUTC
2013-06-23 00:00:00,83.3,66.5,29.92,North,0,0.0,0.0,57,0.00,,,0.00,WUHU216HW,2013-06-23 05:00:00,
2013-06-23 00:05:00,83.3,66.5,29.92,North,0,0.0,0.0,57,0.00,,,0.00,WUHU216HW,2013-06-23 05:05:00,
2013-06-23 00:30:00,82.8,67.0,29.91,North,0,0.0,0.0,59,0.00,,,0.00,WUHU216HW,2013-06-23 05:30:00,
2013-06-23 00:35:00,82.8,67.0,29.91,North,0,0.0,0.0,59,0.00,,,0.00,WUHU216HW,2013-06-23 05:35:00,
2013-06-23 01:00:00,82.4,68.0,29.91,North,0,0.0,0.0,62,0.00,,,0.00,WUHU216HW,2013-06-23 06:00:00,
2013-06-23 01:01:00,82.4,68.0,29.91,North,0,0.0,0.0,62,0.00,,,0.00,WUHU216HW,2013-06-23 06:01:00,
2013-06-23 01:06:00,82.4,68.0,29.91,North,0,0.0,0.0,62,0.00,,,0.00,WUHU216HW,2013-06-23 06:06:00,
2013-06-23 01:30:00,81.9,68.1,29.91,North,0,0.0,0.0,63,0.00,,,0.00,WUHU216HW,2013-06-23 06:30:00,
2013-06-23 01:35:00,81.9,68.1,29.91,North,0,0.0,0.0,63,0.00,,,0.00,WUHU216HW,2013-06-23 06:35:00,
2013-06-23 02:00:00,81.2,68.7,29.91,North,0,0.0,0.0,66,0.00,,,0.00,WUHU216HW,2013-06-23 07:00:00,
2013-06-23 02:05:00,81.2,68.7,29.91,North,0,0.0,0.0,66,0.00,,,0.00,WUHU216HW,2013-06-23 07:05:00,
2013-06-23 02:30:00,80.6,68.7,29.91,North,0,0.0,0.0,67,0.00,,,0.00,WUHU216HW,2013-06-23 07:30:00,
2013-06-23 02:35:00,80.6,68.7,29.91,North,0,0.0,0.0,67,0.00,,,0.00,WUHU216HW,2013-06-23 07:35:00,
2013-06-23 03:00:00,80.3,69.2,29.91,North,0,0.0,0.0,69,0.00,,,0.00,WUHU216HW,2013-06-23 08:00:00,
2013-06-23 03:05:00,80.3,69.2,29.91,North,0,0.0,0.0,69,0.00,,,0.00,WUHU216HW,2013-06-23 08:05:00,
2013-06-23 03:30:00,79.7,69.1,29.91,North,0,0.0,0.0,70,0.00,,,0.00,WUHU216HW,2013-06-23 08:30:00,
2013-06-23 03:35:00,79.7,69.1,29.91,North,0,0.0,0.0,70,0.00,,,0.00,WUHU216HW,2013-06-23 08:35:00,
2013-06-23 04:00:00,79.2,68.9,29.91,North,0,0.0,0.0,71,0.00,,,0.00,WUHU216HW,2013-06-23 09:00:00,
2013-06-23 04:05:00,79.2,68.9,29.91,North,0,0.0,0.0,71,0.00,,,0.00,WUHU216HW,2013-06-23 09:05:00,
2013-06-23 04:30:00,78.5,69.5,29.91,North,0,0.0,0.0,74,0.00,,,0.00,WUHU216HW,2013-06-23 09:30:00,
2013-06-23 04:35:00,78.5,69.5,29.91,North,0,0.0,0.0,74,0.00,,,0.00,WUHU216HW,2013-06-23 09:35:00,
2013-06-23 05:00:00,77.9,70.1,29.91,North,0,0.0,0.0,77,0.00,,,0.00,WUHU216HW,2013-06-23 10:00:00,
2013-06-23 05:05:00,77.9,70.1,29.91,North,0,0.0,0.0,77,0.00,,,0.00,WUHU216HW,2013-06-23 10:05:00,
2013-06-23 05:30:00,77.4,70.0,29.91,North,0,0.0,0.0,78,0.00,,,0.00,WUHU216HW,2013-06-23 10:30:00,
2013-06-23 05:35:00,77.4,70.0,29.91,North,0,0.0,0.0,78,0.00,,,0.00,WUHU216HW,2013-06-23 10:35:00,
2013-06-23 06:00:00,76.9,69.9,29.92,North,0,0.0,0.0,79,0.00,,,0.00,WUHU216HW,2013-06-23 11:00:00,
2013-06-23 06:05:00,76.9,69.9,29.92,North,0,0.0,0.0,79,0.00,,,0.00,WUHU216HW,2013-06-23 11:05:00,
2013-06-23 06:30:00,76.3,70.1,29.93,North,0,0.0,0.0,81,0.00,,,0.00,WUHU216HW,2013-06-23 11:30:00,
2013-06-23 06:35:00,76.3,70.1,29.93,North,0,0.0,0.0,81,0.00,,,0.00,WUHU216HW,2013-06-23 11:35:00,
2013-06-23 07:00:00,76.1,69.9,29.93,North,0,0.0,0.0,81,0.00,,,0.00,WUHU216HW,2013-06-23 12:00:00,
2013-06-23 07:05:00,76.1,69.9,29.93,North,0,0.0,0.0,81,0.00,,,0.00,WUHU216HW,2013-06-23 12:05:00,
2013-06-23 07:30:00,76.7,70.4,29.94,North,0,0.0,0.0,81,0.00,,,0.00,WUHU216HW,2013-06-23 12:30:00,
2013-06-23 07:35:00,76.7,70.4,29.94,North,0,0.0,0.0,81,0.00,,,0.00,WUHU216HW,2013-06-23 12:35:00,
2013-06-23 08:00:00,77.4,71.1,29.95,North,0,0.0,0.0,81,0.00,,,0.00,WUHU216HW,2013-06-23 13:00:00,
2013-06-23 08:05:00,77.4,71.1,29.95,North,0,0.0,0.0,81,0.00,,,0.00,WUHU216HW,2013-06-23 13:05:00,
2013-06-23 08:30:00,78.3,71.6,29.96,North,0,0.0,0.0,80,0.00,,,0.00,WUHU216HW,2013-06-23 13:30:00,
2013-06-23 08:35:00,78.3,71.6,29.96,North,0,0.0,0.0,80,0.00,,,0.00,WUHU216HW,2013-06-23 13:35:00,
2013-06-23 09:00:00,79.7,71.9,29.96,North,0,0.0,0.0,77,0.00,,,0.00,WUHU216HW,2013-06-23 14:00:00,
2013-06-23 09:05:00,79.7,71.9,29.96,North,0,0.0,0.0,77,0.00,,,0.00,WUHU216HW,2013-06-23 14:05:00,
2013-06-23 09:30:00,81.2,71.7,29.97,North,0,0.0,0.0,73,0.00,,,0.00,WUHU216HW,2013-06-23 14:30:00,
2013-06-23 09:35:00,81.2,71.7,29.97,North,0,0.0,0.0,73,0.00,,,0.00,WUHU216HW,2013-06-23 14:35:00,
2013-06-23 10:00:00,82.4,72.5,29.97,North,0,0.0,0.0,72,0.00,,,0.00,WUHU216HW,2013-06-23 15:00:00,
2013-06-23 10:05:00,82.4,72.5,29.97,North,0,0.0,0.0,72,0.00,,,0.00,WUHU216HW,2013-06-23 15:05:00,
2013-06-23 10:30:00,83.5,72.3,29.97,North,0,0.0,0.0,69,0.00,,,0.00,WUHU216HW,2013-06-23 15:30:00,
2013-06-23 10:35:00,83.5,72.3,29.97,North,0,0.0,0.0,69,0.00,,,0.00,WUHU216HW,2013-06-23 15:35:00,
2013-06-23 11:00:00,85.0,72.4,29.98,North,0,0.0,0.0,66,0.00,,,0.00,WUHU216HW,2013-06-23 16:00:00,
2013-06-23 11:05:00,85.0,72.4,29.98,North,0,0.0,0.0,66,0.00,,,0.00,WUHU216HW,2013-06-23 16:05:00,
2013-06-23 11:30:00,86.0,72.0,29.98,North,0,0.0,0.0,63,0.00,,,0.00,WUHU216HW,2013-06-23 16:30:00,
2013-06-23 11:35:00,86.0,72.0,29.98,North,0,0.0,0.0,63,0.00,,,0.00,WUHU216HW,2013-06-23 16:35:00,
2013-06-23 12:00:00,87.1,71.1,29.96,North,0,0.0,0.0,59,0.00,,,0.00,WUHU216HW,2013-06-23 17:00:00,
2013-06-23 12:02:00,87.1,71.1,29.96,North,0,0.0,0.0,59,0.00,,,0.00,WUHU216HW,2013-06-23 17:02:00,
2013-06-23 12:03:00,87.1,71.1,29.96,North,0,0.0,0.0,59,0.00,,,0.00,WUHU216HW,2013-06-23 17:03:00,
2013-06-23 12:08:00,87.1,71.1,29.96,North,0,0.0,0.0,59,0.00,,,0.00,WUHU216HW,2013-06-23 17:08:00,
2013-06-23 12:30:00,88.0,70.9,29.96,North,0,0.0,0.0,57,0.00,,,0.00,WUHU216HW,2013-06-23 17:30:00,
2013-06-23 12:35:00,88.0,70.9,29.96,North,0,0.0,0.0,57,0.00,,,0.00,WUHU216HW,2013-06-23 17:35:00,
2013-06-23 13:00:00,88.9,71.2,29.94,North,0,0.0,0.0,56,0.00,,,0.00,WUHU216HW,2013-06-23 18:00:00,
2013-06-23 13:05:00,88.9,71.2,29.94,North,0,0.0,0.0,56,0.00,,,0.00,WUHU216HW,2013-06-23 18:05:00,
2013-06-23 13:30:00,90.4,70.3,29.93,North,0,0.0,0.0,52,0.00,,,0.00,WUHU216HW,2013-06-23 18:30:00,
2013-06-23 13:35:00,90.4,70.3,29.93,North,0,0.0,0.0,52,0.00,,,0.00,WUHU216HW,2013-06-23 18:35:00,
2013-06-23 14:00:00,91.1,69.8,29.93,North,0,0.0,0.0,50,0.00,,,0.00,WUHU216HW,2013-06-23 19:00:00,
2013-06-23 14:05:00,91.1,69.8,29.93,North,0,0.0,0.0,50,0.00,,,0.00,WUHU216HW,2013-06-23 19:05:00,
2013-06-23 14:30:00,92.3,69.8,29.92,North,0,0.0,0.0,48,0.00,,,0.00,WUHU216HW,2013-06-23 19:30:00,
2013-06-23 14:35:00,92.3,69.8,29.92,North,0,0.0,0.0,48,0.00,,,0.00,WUHU216HW,2013-06-23 19:35:00,
2013-06-23 15:00:00,92.9,70.2,29.91,North,0,0.0,0.0,48,0.00,,,0.00,WUHU216HW,2013-06-23 20:00:00,
2013-06-23 15:05:00,92.9,70.2,29.91,North,0,0.0,0.0,48,0.00,,,0.00,WUHU216HW,2013-06-23 20:05:00,
2013-06-23 15:30:00,93.6,69.0,29.89,North,0,0.0,0.0,45,0.00,,,0.00,WUHU216HW,2013-06-23 20:30:00,
2013-06-23 15:35:00,93.6,69.0,29.89,North,0,0.0,0.0,45,0.00,,,0.00,WUHU216HW,2013-06-23 20:35:00,
2013-06-23 16:00:00,93.6,67.6,29.89,North,0,0.0,0.0,43,0.00,,,0.00,WUHU216HW,2013-06-23 21:00:00,
2013-06-23 16:05:00,93.6,67.6,29.89,North,0,0.0,0.0,43,0.00,,,0.00,WUHU216HW,2013-06-23 21:05:00,
2013-06-23 16:30:00,93.6,67.0,29.89,North,0,0.0,0.0,42,0.00,,,0.00,WUHU216HW,2013-06-23 21:30:00,
2013-06-23 16:35:00,93.6,67.0,29.89,North,0,0.0,0.0,42,0.00,,,0.00,WUHU216HW,2013-06-23 21:35:00,
2013-06-23 17:00:00,93.4,66.8,29.89,North,0,0.0,0.0,42,0.00,,,0.00,WUHU216HW,2013-06-23 22:00:00,
2013-06-23 17:05:00,93.4,66.8,29.89,North,0,0.0,0.0,42,0.00,,,0.00,WUHU216HW,2013-06-23 22:05:00,
2013-06-23 17:30:00,92.9,67.0,29.88,North,0,0.0,0.0,43,0.00,,,0.00,WUHU216HW,2013-06-23 22:30:00,
2013-06-23 17:35:00,92.9,67.0,29.88,North,0,0.0,0.0,43,0.00,,,0.00,WUHU216HW,2013-06-23 22:35:00,
2013-06-23 18:00:00,92.3,67.2,29.88,North,0,0.0,0.0,44,0.00,,,0.00,WUHU216HW,2013-06-23 23:00:00,
2013-06-23 18:05:00,92.3,67.2,29.88,North,0,0.0,0.0,44,0.00,,,0.00,WUHU216HW,2013-06-23 23:05:00,
2013-06-23 18:30:00,91.6,66.5,29.87,North,0,0.0,0.0,44,0.00,,,0.00,WUHU216HW,2013-06-23 23:30:00,
2013-06-23 18:35:00,91.6,66.5,29.87,North,0,0.0,0.0,44,0.00,,,0.00,WUHU216HW,2013-06-23 23:35:00,
2013-06-23 19:00:00,91.4,66.3,29.87,North,0,0.0,0.0,44,0.00,,,0.00,WUHU216HW,2013-06-24 00:00:00,
2013-06-23 19:05:00,91.4,66.3,29.87,North,0,0.0,0.0,44,0.00,,,0.00,WUHU216HW,2013-06-24 00:05:00,
2013-06-23 19:30:00,90.9,67.2,29.87,North,0,0.0,0.0,46,0.00,,,0.00,WUHU216HW,2013-06-24 00:30:00,
2013-06-23 19:35:00,90.9,67.2,29.87,North,0,0.0,0.0,46,0.00,,,0.00,WUHU216HW,2013-06-24 00:35:00,
2013-06-23 20:00:00,90.2,66.5,29.87,North,0,0.0,0.0,46,0.00,,,0.00,WUHU216HW,2013-06-24 01:00:00,
2013-06-23 20:05:00,90.2,66.5,29.87,North,0,0.0,0.0,46,0.00,,,0.00,WUHU216HW,2013-06-24 01:05:00,
2013-06-23 20:30:00,89.3,66.3,29.87,North,0,0.0,0.0,47,0.00,,,0.00,WUHU216HW,2013-06-24 01:30:00,
2013-06-23 20:35:00,89.3,66.3,29.87,North,0,0.0,0.0,47,0.00,,,0.00,WUHU216HW,2013-06-24 01:35:00,
2013-06-23 21:00:00,88.4,66.2,29.87,North,0,0.0,0.0,48,0.00,,,0.00,WUHU216HW,2013-06-24 02:00:00,
2013-06-23 21:05:00,88.4,66.2,29.87,North,0,0.0,0.0,48,0.00,,,0.00,WUHU216HW,2013-06-24 02:05:00,
2013-06-23 21:10:00,88.4,66.2,29.87,North,0,0.0,0.0,48,0.00,,,0.00,WUHU216HW,2013-06-24 02:10:00,
2013-06-23 21:30:00,87.5,66.0,29.88,North,0,0.0,0.0,49,0.00,,,0.00,WUHU216HW,2013-06-24 02:30:00,
2013-06-23 21:35:00,87.5,66.0,29.88,North,0,0.0,0.0,49,0.00,,,0.00,WUHU216HW,2013-06-24 02:35:00,
2013-06-23 22:00:00,86.6,65.8,29.89,North,0,0.0,0.0,50,0.00,,,0.00,WUHU216HW,2013-06-24 03:00:00,
2013-06-23 22:05:00,86.6,65.8,29.89,North,0,0.0,0.0,50,0.00,,,0.00,WUHU216HW,2013-06-24 03:05:00,
2013-06-23 22:30:00,86.0,66.4,29.91,North,0,0.0,0.0,52,0.00,,,0.00,WUHU216HW,2013-06-24 03:30:00,
2013-06-23 22:35:00,86.0,66.4,29.91,North,0,0.0,0.0,52,0.00,,,0.00,WUHU216HW,2013-06-24 03:35:00,
2013-06-23 23:00:00,85.0,67.0,29.91,North,0,0.0,0.0,55,0.00,,,0.00,WUHU216HW,2013-06-24 04:00:00,
2013-06-23 23:01:00,85.0,67.0,29.91,North,0,0.0,0.0,55,0.00,,,0.00,WUHU216HW,2013-06-24 04:01:00,
2013-06-23 23:02:00,85.0,67.0,29.91,North,0,0.0,0.0,55,0.00,,,0.00,WUHU216HW,2013-06-24 04:02:00,
2013-06-23 23:30:00,83.9,67.5,29.92,North,0,0.0,0.0,58,0.00,,,0.00,WUHU216HW,2013-06-24 04:30:00,
2013-06-23 23:35:00,83.9,67.5,29.92,North,0,0.0,0.0,58,0.00,,,0.00,WUHU216HW,2013-06-24 04:35:00,